Time;durP1;ratioP1;P1;durP2;ratioP2;P2;SDS_P1;SDS_P2;PMS_P1;PMS_P2;Temp;Humidity;BMP_temperature;BMP_pressure;BME280_temperature;BME280_humidity;BME280_pressure;Samples;Min_cycle;Max_cycle;Signal;HPM_P1;HPM_P2
2022/01/03 00:00:07;;;;;;;70.95;22.45;;;;;;;9.10;72.07;101101.13;4998798;28;20547;-82
2022/01/03 00:02:33;;;;;;;55.15;22.00;;;;;;;9.12;72.08;101101.00;4999053;28;20105;-82
2022/01/03 00:04:58;;;;;;;53.20;22.08;;;;;;;9.18;72.49;101097.91;5010795;28;20464;-82
2022/01/03 00:07:25;;;;;;;56.70;23.98;;;;;;;9.22;72.52;101096.75;5017501;28;20037;-82
2022/01/03 00:09:51;;;;;;;54.05;22.75;;;;;;;9.22;72.37;101088.69;5017586;28;20036;-82
2022/01/03 00:12:20;;;;;;;70.32;32.85;;;;;;;9.18;72.35;101081.81;5017369;28;20025;-83
2022/01/03 00:14:47;;;;;;;72.88;31.33;;;;;;;9.19;72.24;101083.53;4994573;28;20026;-83
2022/01/03 00:17:12;;;;;;;69.72;31.45;;;;;;;9.13;71.77;101078.59;4998210;28;20034;-83
2022/01/03 00:19:38;;;;;;;74.15;39.63;;;;;;;9.15;72.00;101082.88;4992615;28;20022;-81
2022/01/03 00:22:11;;;;;;;67.82;31.60;;;;;;;9.20;71.91;101080.75;4980440;28;20038;-82
2022/01/03 00:24:41;;;;;;;58.65;28.67;;;;;;;9.23;71.92;101077.84;4997646;28;20018;-82
2022/01/03 00:27:14;;;;;;;78.40;38.17;;;;;;;9.24;72.47;101066.16;4997406;28;20481;-83
2022/01/03 00:29:46;;;;;;;59.20;31.20;;;;;;;9.26;72.54;101063.38;4997392;28;20076;-82
2022/01/03 00:32:13;;;;;;;75.43;30.40;;;;;;;9.26;72.76;101047.28;4997673;28;20057;-82
2022/01/03 00:34:40;;;;;;;61.97;28.17;;;;;;;9.32;72.97;101051.34;4997060;28;20040;-82
2022/01/03 00:37:08;;;;;;;48.70;26.77;;;;;;;9.32;72.48;101051.34;4997258;28;20049;-83
2022/01/03 00:39:34;;;;;;;54.67;30.08;;;;;;;9.32;72.29;101044.16;4977917;28;20031;-82
2022/01/03 00:41:59;;;;;;;53.15;29.50;;;;;;;9.31;72.52;101047.81;4977744;28;20086;-82
2022/01/03 00:44:25;;;;;;;45.85;26.65;;;;;;;9.33;72.58;101039.66;4973582;28;20035;-82
2022/01/03 00:46:55;;;;;;;45.67;25.45;;;;;;;9.40;72.59;101041.78;4996620;28;20030;-82
2022/01/03 00:49:20;;;;;;;46.60;24.80;;;;;;;9.45;72.33;101045.00;4993029;28;20022;-82
2022/01/03 00:51:49;;;;;;;47.55;24.20;;;;;;;9.37;72.07;101023.22;4996912;28;20054;-82
2022/01/03 00:54:15;;;;;;;45.72;25.75;;;;;;;9.48;72.12;101035.91;4997450;28;20031;-82
2022/01/03 00:56:47;;;;;;;46.10;22.90;;;;;;;9.49;72.91;101033.09;4999567;28;20166;-81
2022/01/03 00:59:46;;;;;;;43.25;22.23;;;;;;;9.48;72.73;101025.16;5010900;28;20034;-81
2022/01/03 01:02:16;;;;;;;35.63;22.33;;;;;;;9.54;73.29;101019.38;4996574;28;20548;-81
2022/01/03 01:04:45;;;;;;;35.42;21.98;;;;;;;9.54;73.43;100998.72;4996864;28;20036;-81
2022/01/03 01:07:11;;;;;;;39.45;21.48;;;;;;;9.57;74.07;100992.28;4997196;28;20030;-81
2022/01/03 01:09:38;;;;;;;41.67;22.40;;;;;;;9.61;74.71;100989.25;4997410;28;20069;-82
2022/01/03 01:12:06;;;;;;;36.58;21.52;;;;;;;9.71;75.08;100989.47;4996744;28;20026;-81
2022/01/03 01:14:32;;;;;;;40.78;21.92;;;;;;;9.78;75.29;100969.25;4997392;28;20037;-81
2022/01/03 01:16:58;;;;;;;38.47;19.77;;;;;;;9.89;75.63;100963.09;4997097;28;20030;-83
2022/01/03 01:19:26;;;;;;;39.63;20.75;;;;;;;9.85;75.60;100955.25;4996899;28;20030;-82
2022/01/03 01:21:53;;;;;;;28.17;19.38;;;;;;;9.95;75.84;100952.75;4997084;28;20034;-82
2022/01/03 01:24:21;;;;;;;32.65;21.50;;;;;;;10.03;75.31;100944.16;4997812;28;20030;-83
2022/01/03 01:29:31;;;;;;;48.55;25.35;;;;;;;10.04;74.70;100941.31;4997976;28;20187;-83
2022/01/03 01:32:01;;;;;;;50.15;25.63;;;;;;;10.00;74.37;100925.56;4996462;28;20476;-82
2022/01/03 01:34:29;;;;;;;33.50;21.50;;;;;;;10.07;74.45;100922.28;4997020;28;20065;-82
2022/01/03 01:37:00;;;;;;;47.20;27.02;;;;;;;10.13;74.61;100926.34;4996493;28;20037;-82
2022/01/03 01:39:28;;;;;;;36.30;23.23;;;;;;;10.17;74.54;100925.19;4996240;28;20030;-83
2022/01/03 01:42:00;;;;;;;44.50;25.88;;;;;;;10.20;74.46;100912.38;4995987;28;20032;-82
2022/01/03 01:44:30;;;;;;;35.83;23.77;;;;;;;10.18;74.36;100900.84;4996082;28;20034;-82
2022/01/03 01:47:01;;;;;;;32.60;22.35;;;;;;;10.29;74.89;100900.06;4996272;28;20083;-82
2022/01/03 01:49:26;;;;;;;38.85;22.45;;;;;;;10.26;74.42;100901.16;4996526;28;20041;-82
2022/01/03 01:52:01;;;;;;;56.55;32.28;;;;;;;10.24;74.42;100902.25;4996693;28;20576;-82
2022/01/03 01:54:38;;;;;;;41.15;24.20;;;;;;;10.27;74.60;100889.41;4978739;28;20030;-82
2022/01/03 01:57:06;;;;;;;39.72;23.65;;;;;;;10.31;74.61;100880.16;4996814;28;20030;-82
2022/01/03 02:00:08;;;;;;;40.78;23.58;;;;;;;10.33;74.62;100875.53;4996877;28;20026;-82
2022/01/03 02:02:45;;;;;;;37.80;22.73;;;;;;;10.32;74.69;100872.94;4996494;28;20041;-82
2022/01/03 02:05:20;;;;;;;34.85;23.38;;;;;;;10.32;74.76;100857.69;4997234;28;20031;-82
2022/01/03 02:07:54;;;;;;;39.75;25.15;;;;;;;10.37;74.37;100863.53;4995832;28;20117;-82
2022/01/03 02:10:27;;;;;;;47.50;26.42;;;;;;;10.35;73.70;100851.19;4997152;28;20068;-82
2022/01/03 02:12:53;;;;;;;54.58;28.98;;;;;;;10.25;72.44;100855.56;4995466;28;20385;-82
2022/01/03 02:15:19;;;;;;;53.55;28.92;;;;;;;10.07;71.65;100843.50;4997262;28;20102;-82
2022/01/03 02:17:46;;;;;;;60.72;31.67;;;;;;;9.89;71.82;100836.81;4996949;28;20033;-82
2022/01/03 02:20:15;;;;;;;71.20;36.28;;;;;;;9.77;71.75;100831.41;4995962;28;20088;-83
2022/01/03 02:22:42;;;;;;;85.53;39.17;;;;;;;9.62;71.79;100824.50;4996453;28;20032;-82
2022/01/03 02:25:10;;;;;;;67.85;35.30;;;;;;;9.58;72.37;100832.88;4996296;28;20030;-82
2022/01/03 02:27:37;;;;;;;51.28;27.17;;;;;;;9.49;72.56;100829.06;4997275;28;20096;-82
2022/01/03 02:30:06;;;;;;;62.90;34.45;;;;;;;9.47;73.14;100820.25;4996139;28;20094;-83
2022/01/03 02:32:31;;;;;;;50.35;28.27;;;;;;;9.54;73.29;100818.81;4996696;28;20030;-81
2022/01/03 02:34:57;;;;;;;61.10;34.50;;;;;;;9.47;73.70;100801.47;5014060;28;20087;-83
2022/01/03 02:37:23;;;;;;;62.03;34.72;;;;;;;9.49;74.01;100810.25;4995497;28;20554;-83
2022/01/03 02:39:50;;;;;;;52.92;30.58;;;;;;;9.47;74.82;100805.97;4995271;28;20030;-83
2022/01/03 02:42:20;;;;;;;68.40;36.53;;;;;;;9.59;75.20;100816.66;4995048;28;20489;-83
2022/01/03 02:44:46;;;;;;;57.40;31.83;;;;;;;9.61;75.59;100812.03;4995866;28;20034;-84
2022/01/03 02:47:11;;;;;;;56.55;33.08;;;;;;;9.61;75.42;100797.75;4984723;28;20471;-83
2022/01/03 02:49:37;;;;;;;51.65;30.48;;;;;;;9.67;75.29;100789.22;4976343;28;20416;-83
2022/01/03 02:52:03;;;;;;;52.05;29.90;;;;;;;9.71;74.77;100793.41;4975970;28;20047;-83
2022/01/03 02:54:28;;;;;;;47.80;27.70;;;;;;;9.73;74.93;100792.31;4975936;28;20054;-83
2022/01/03 02:56:56;;;;;;;41.80;26.48;;;;;;;9.73;74.86;100786.94;4975695;28;20505;-83
2022/01/03 02:59:22;;;;;;;46.67;28.05;;;;;;;9.76;74.19;100778.66;4976244;28;20030;-83
2022/01/03 03:01:48;;;;;;;52.15;31.08;;;;;;;9.78;73.75;100781.25;4977180;28;20110;-82
2022/01/03 03:04:14;;;;;;;55.08;30.10;;;;;;;9.76;73.59;100777.78;4993370;28;20051;-82
2022/01/03 03:06:40;;;;;;;61.33;33.75;;;;;;;9.73;73.83;100767.28;4982902;28;20035;-82
2022/01/03 03:09:07;;;;;;;49.30;31.35;;;;;;;9.77;74.25;100766.94;4958380;28;20092;-83
2022/01/03 03:11:34;;;;;;;54.17;28.48;;;;;;;9.77;74.85;100761.56;4975730;28;20023;-83
2022/01/03 03:14:01;;;;;;;44.10;28.70;;;;;;;9.84;75.32;100754.78;4975305;28;20488;-82
2022/01/03 03:16:26;;;;;;;52.08;29.25;;;;;;;9.91;75.63;100759.69;4976256;28;20036;-83
2022/01/03 03:18:52;;;;;;;49.83;30.75;;;;;;;9.93;76.04;100755.03;4977049;28;20026;-82
2022/01/03 03:21:18;;;;;;;55.90;36.15;;;;;;;9.93;75.73;100741.59;4977407;28;20105;-83
2022/01/03 03:23:43;;;;;;;48.70;30.63;;;;;;;9.97;76.07;100753.84;4989014;28;20058;-83
2022/01/03 03:26:13;;;;;;;50.05;33.22;;;;;;;10.02;76.00;100751.63;4982815;28;20015;-83
2022/01/03 03:28:38;;;;;;;55.40;36.90;;;;;;;10.07;76.67;100741.38;4999699;28;20030;-82
2022/01/03 03:31:05;;;;;;;54.67;34.63;;;;;;;10.07;76.87;100734.19;4985833;28;20492;-83
2022/01/03 03:33:32;;;;;;;50.58;33.38;;;;;;;10.11;77.26;100727.59;4976062;28;20023;-83
2022/01/03 03:35:59;;;;;;;47.88;32.15;;;;;;;10.13;77.22;100738.22;4974701;28;20030;-83
2022/01/03 03:38:27;;;;;;;46.60;29.65;;;;;;;10.11;77.46;100730.28;4974684;28;20106;-83
2022/01/03 03:40:59;;;;;;;47.05;30.95;;;;;;;10.14;77.45;100730.09;4975222;28;20031;-83
2022/01/03 03:43:25;;;;;;;61.75;39.00;;;;;;;10.15;77.80;100717.50;4974771;28;20030;-83
2022/01/03 03:45:51;;;;;;;81.88;49.72;;;;;;;10.16;77.95;100724.56;4974981;28;20034;-83
2022/01/03 03:48:25;;;;;;;77.10;48.95;;;;;;;10.13;77.95;100722.97;4958521;28;20106;-84
2022/01/03 03:50:50;;;;;;;62.60;41.78;;;;;;;10.12;78.13;100715.03;4974305;28;20465;-82
2022/01/03 03:53:16;;;;;;;57.25;36.95;;;;;;;10.10;78.34;100717.81;4974312;28;20062;-83
2022/01/03 03:55:43;;;;;;;49.55;30.80;;;;;;;10.02;78.60;100698.75;4975413;28;20038;-82
2022/01/03 03:58:08;;;;;;;52.70;32.05;;;;;;;10.01;78.49;100701.53;4974547;28;20027;-82
2022/01/03 04:00:34;;;;;;;44.65;28.38;;;;;;;10.05;78.77;100706.56;4974830;28;20030;-82
2022/01/03 04:03:00;;;;;;;48.65;32.50;;;;;;;10.04;78.95;100693.25;4974712;28;20034;-83
2022/01/03 04:05:25;;;;;;;50.50;31.05;;;;;;;10.07;78.87;100695.69;4975173;28;20023;-82
2022/01/03 04:07:51;;;;;;;51.08;30.23;;;;;;;10.05;78.92;100700.34;4974883;28;20030;-83
2022/01/03 04:10:16;;;;;;;45.92;28.17;;;;;;;10.05;79.00;100692.28;4991722;28;20034;-83
2022/01/03 04:12:44;;;;;;;42.72;30.55;;;;;;;10.13;78.76;100700.59;4976389;28;20098;-82
2022/01/03 04:15:10;;;;;;;48.55;31.55;;;;;;;10.11;78.87;100697.19;4957624;28;20054;-83
2022/01/03 04:17:36;;;;;;;47.20;29.83;;;;;;;10.13;78.47;100695.22;4974566;28;20407;-83
2022/01/03 04:20:04;;;;;;;49.95;32.00;;;;;;;10.10;78.59;100698.13;4957009;28;20035;-83
2022/01/03 04:22:30;;;;;;;52.50;31.90;;;;;;;10.07;78.78;100685.81;4974740;28;20022;-83
2022/01/03 04:24:55;;;;;;;44.80;29.58;;;;;;;10.11;78.84;100683.75;4974572;28;20398;-83
2022/01/03 04:27:21;;;;;;;43.92;28.40;;;;;;;10.11;79.07;100671.16;4974797;28;20037;-82
2022/01/03 04:29:46;;;;;;;46.72;29.10;;;;;;;10.17;78.50;100675.22;4974761;28;20074;-84
2022/01/03 04:32:12;;;;;;;42.85;28.08;;;;;;;10.18;78.41;100660.81;4970452;28;20014;-83
2022/01/03 04:34:37;;;;;;;45.97;29.88;;;;;;;10.16;78.36;100666.31;4994265;28;20027;-83
2022/01/03 04:37:03;;;;;;;55.65;31.50;;;;;;;10.15;77.88;100679.88;4995896;28;20041;-83
2022/01/03 04:39:28;;;;;;;45.25;30.80;;;;;;;10.17;78.17;100669.84;4998256;28;20022;-82
2022/01/03 04:41:54;;;;;;;45.85;29.77;;;;;;;10.17;78.02;100665.34;5008282;28;20109;-82
2022/01/03 04:44:19;;;;;;;42.10;27.90;;;;;;;10.17;78.17;100659.09;5004177;28;20030;-83
2022/01/03 04:46:45;;;;;;;43.05;27.83;;;;;;;10.17;78.70;100654.59;4997386;28;20109;-83
2022/01/03 04:49:11;;;;;;;42.13;27.80;;;;;;;10.23;78.30;100658.63;4996812;28;20552;-83
2022/01/03 04:51:37;;;;;;;43.67;28.48;;;;;;;10.19;77.96;100662.50;4996903;28;20031;-82
2022/01/03 04:54:03;;;;;;;41.33;27.48;;;;;;;10.17;77.93;100659.97;4996660;28;20497;-82
2022/01/03 04:56:29;;;;;;;41.83;28.02;;;;;;;10.05;78.21;100666.28;4996648;28;20030;-84
2022/01/03 04:58:55;;;;;;;43.28;27.27;;;;;;;10.06;78.36;100677.88;4996814;28;20161;-83
2022/01/03 05:01:21;;;;;;;40.45;27.77;;;;;;;10.00;78.58;100667.63;4999417;28;20026;-84
2022/01/03 05:03:47;;;;;;;47.20;28.70;;;;;;;10.00;79.00;100652.31;4997798;28;20113;-83
2022/01/03 05:06:13;;;;;;;47.30;28.10;;;;;;;9.98;78.95;100650.75;4997758;28;20054;-82
2022/01/03 05:08:39;;;;;;;42.47;27.65;;;;;;;10.06;78.93;100651.00;4997115;28;20076;-82
2022/01/03 05:11:05;;;;;;;47.15;28.35;;;;;;;10.02;78.73;100660.28;4997086;28;20508;-83
2022/01/03 05:13:32;;;;;;;48.88;29.67;;;;;;;10.05;78.56;100654.66;4998286;28;20025;-83
2022/01/03 05:15:59;;;;;;;52.55;32.75;;;;;;;10.09;78.62;100661.53;5008607;28;20027;-82
2022/01/03 05:18:25;;;;;;;56.80;34.50;;;;;;;10.06;78.74;100651.00;4997578;28;20038;-82
2022/01/03 05:20:50;;;;;;;53.60;33.75;;;;;;;10.08;78.74;100649.03;4996786;28;20101;-82
2022/01/03 05:23:16;;;;;;;63.58;39.53;;;;;;;10.04;78.76;100636.81;4998194;28;20048;-84
2022/01/03 05:25:42;;;;;;;56.60;38.58;;;;;;;10.03;78.53;100624.38;4997566;28;20080;-83
2022/01/03 05:28:07;;;;;;;67.10;42.17;;;;;;;10.04;78.36;100634.13;4997041;28;20496;-83
2022/01/03 05:30:34;;;;;;;64.45;39.58;;;;;;;9.99;78.74;100636.34;5001394;28;20094;-83
2022/01/03 05:33:00;;;;;;;61.22;38.55;;;;;;;9.97;78.60;100632.94;4996873;28;20018;-83
2022/01/03 05:35:25;;;;;;;54.10;35.72;;;;;;;9.91;79.05;100644.16;4995953;28;20027;-82
2022/01/03 05:37:51;;;;;;;60.25;37.97;;;;;;;9.95;78.99;100643.78;4998325;28;20030;-83
2022/01/03 05:40:16;;;;;;;51.75;33.03;;;;;;;9.95;78.97;100630.34;4996736;28;20033;-83
2022/01/03 05:42:44;;;;;;;54.63;35.05;;;;;;;10.04;78.59;100642.19;4996416;28;20030;-83
2022/01/03 05:45:09;;;;;;;53.88;33.55;;;;;;;10.09;78.79;100635.47;5003401;28;20014;-82
2022/01/03 05:47:35;;;;;;;42.80;29.38;;;;;;;10.17;78.61;100637.59;4989700;28;20118;-84
2022/01/03 05:50:01;;;;;;;51.80;29.95;;;;;;;10.22;78.57;100641.63;4995927;28;20033;-82
2022/01/03 05:52:26;;;;;;;48.20;29.77;;;;;;;10.24;78.64;100639.66;4996074;28;20125;-82
2022/01/03 05:54:52;;;;;;;55.95;33.53;;;;;;;10.30;78.30;100633.78;4996376;28;20465;-82
2022/01/03 05:57:18;;;;;;;47.30;30.52;;;;;;;10.38;78.08;100643.94;4995748;28;20027;-83
2022/01/03 05:59:44;;;;;;;51.65;31.02;;;;;;;10.45;78.00;100652.38;4996879;28;20033;-83
2022/01/03 06:02:09;;;;;;;48.97;31.58;;;;;;;10.41;77.61;100649.06;4996004;28;20464;-82
2022/01/03 06:04:41;;;;;;;47.88;29.10;;;;;;;10.52;77.27;100651.75;4996246;28;20480;-83
2022/01/03 06:07:09;;;;;;;48.17;29.80;;;;;;;10.48;77.40;100652.13;4995913;28;20030;-82
2022/01/03 06:09:35;;;;;;;41.72;28.85;;;;;;;10.45;77.16;100655.06;4996176;28;20036;-82
2022/01/03 06:12:01;;;;;;;48.25;29.17;;;;;;;10.51;77.52;100650.06;4995508;28;20121;-83
2022/01/03 06:14:27;;;;;;;48.63;29.85;;;;;;;10.55;77.02;100642.59;4979010;28;20519;-82
2022/01/03 06:16:52;;;;;;;49.72;31.08;;;;;;;10.54;76.85;100631.00;4996894;28;20460;-83
2022/01/03 06:19:19;;;;;;;51.75;32.63;;;;;;;10.63;76.98;100634.75;5004337;28;20037;-81
2022/01/03 06:21:45;;;;;;;55.60;33.22;;;;;;;10.63;76.82;100624.84;5011493;28;20112;-82
2022/01/03 06:24:12;;;;;;;47.28;33.13;;;;;;;10.59;76.67;100625.22;4998518;28;20049;-82
2022/01/03 06:26:41;;;;;;;52.53;33.05;;;;;;;10.59;77.03;100631.47;4996244;28;20098;-83
2022/01/03 06:29:07;;;;;;;52.85;32.30;;;;;;;10.63;77.04;100622.16;4996385;28;20127;-85
2022/01/03 06:31:33;;;;;;;60.13;32.75;;;;;;;10.62;76.58;100606.13;4995225;28;20026;-83
2022/01/03 06:33:59;;;;;;;56.47;35.17;;;;;;;10.69;76.40;100607.34;4995787;28;20044;-83
2022/01/03 06:36:24;;;;;;;49.85;32.10;;;;;;;10.75;76.63;100617.63;4995400;28;20030;-83
2022/01/03 06:38:50;;;;;;;48.53;31.75;;;;;;;10.76;76.33;100614.78;4995044;28;20029;-83
2022/01/03 06:41:15;;;;;;;48.55;29.58;;;;;;;10.73;76.42;100604.28;4994726;28;20102;-82
2022/01/03 06:43:41;;;;;;;47.88;30.70;;;;;;;10.81;76.53;100617.97;4995177;28;20532;-82
2022/01/03 06:46:06;;;;;;;49.92;29.25;;;;;;;10.83;75.95;100605.22;4977648;28;20384;-82
2022/01/03 06:48:32;;;;;;;46.03;29.77;;;;;;;10.88;76.09;100619.19;4994935;28;20138;-82
2022/01/03 06:50:57;;;;;;;43.65;27.77;;;;;;;10.88;76.20;100619.19;4995185;28;20030;-83
2022/01/03 06:53:23;;;;;;;43.13;27.75;;;;;;;10.89;76.23;100615.47;4995209;28;20038;-83
2022/01/03 06:55:48;;;;;;;53.47;28.63;;;;;;;10.89;75.70;100607.41;4996133;28;20030;-84
2022/01/03 06:58:14;;;;;;;44.20;28.25;;;;;;;10.78;76.45;100620.91;4995844;28;20397;-81
2022/01/03 07:00:39;;;;;;;46.22;28.58;;;;;;;10.65;76.23;100622.03;4994869;28;20022;-80
2022/01/03 07:03:05;;;;;;;44.78;29.08;;;;;;;10.58;76.50;100626.22;4995528;28;20023;-78
2022/01/03 07:05:30;;;;;;;48.53;30.55;;;;;;;10.59;77.35;100607.25;4995224;28;20457;-81
2022/01/03 07:07:56;;;;;;;52.05;31.85;;;;;;;10.58;77.05;100616.28;4995484;28;20503;-79
2022/01/03 07:10:21;;;;;;;52.53;33.92;;;;;;;10.70;77.03;100619.84;4995778;28;20027;-82
2022/01/03 07:12:50;;;;;;;60.30;33.42;;;;;;;10.75;77.45;100618.47;5002768;28;20049;-81
2022/01/03 07:20:47;;;;;;;49.17;30.77;;;;;;;10.92;76.35;100593.69;4968674;28;20621;-82
2022/01/03 07:23:14;;;;;;;47.92;29.20;;;;;;;11.03;76.83;100594.66;4996739;28;20033;-82
2022/01/03 07:25:40;;;;;;;43.47;27.90;;;;;;;10.97;76.02;100574.50;4999075;28;20030;-86
2022/01/03 07:28:08;;;;;;;50.05;28.27;;;;;;;11.15;76.20;100582.84;4999807;28;20162;-82
2022/01/03 07:30:35;;;;;;;43.25;26.80;;;;;;;11.29;75.66;100585.22;4980437;28;20035;-83
2022/01/03 07:33:00;;;;;;;41.75;25.33;;;;;;;11.34;75.76;100577.63;4997671;28;20484;-82
2022/01/03 07:35:26;;;;;;;37.50;24.80;;;;;;;11.45;75.27;100575.72;4998546;28;20022;-83
2022/01/03 07:37:53;;;;;;;41.40;24.23;;;;;;;11.45;73.98;100558.69;4996392;28;20105;-83
2022/01/03 07:40:20;;;;;;;35.60;23.75;;;;;;;11.41;73.97;100551.84;4996304;28;20027;-88
2022/01/03 07:42:45;;;;;;;36.45;23.88;;;;;;;11.50;73.46;100537.59;4995790;28;20377;-92
2022/01/03 07:45:11;;;;;;;34.92;24.52;;;;;;;11.56;73.49;100531.69;4977953;28;20038;-83
2022/01/03 07:47:37;;;;;;;35.13;23.23;;;;;;;11.66;73.08;100558.69;4977854;28;20136;-82
2022/01/03 07:50:04;;;;;;;37.50;24.08;;;;;;;11.64;72.70;100556.13;4977946;28;20032;-84
2022/01/03 07:52:29;;;;;;;39.10;23.23;;;;;;;11.65;72.39;100549.72;4995389;28;20070;-85
2022/01/03 07:54:55;;;;;;;38.15;23.75;;;;;;;11.57;72.14;100573.81;4995239;28;20050;-85
2022/01/03 07:57:23;;;;;;;39.83;23.08;;;;;;;11.65;72.33;100570.47;4997957;28;20033;-84
2022/01/03 07:59:49;;;;;;;35.30;22.73;;;;;;;11.71;72.46;100565.41;5008442;28;20023;-83
2022/01/03 08:02:15;;;;;;;41.05;23.60;;;;;;;11.62;71.70;100550.00;5006761;28;20026;-85
2022/01/03 08:04:40;;;;;;;33.17;21.17;;;;;;;11.63;71.86;100557.09;4999158;28;20026;-83
2022/01/03 08:07:06;;;;;;;35.63;22.02;;;;;;;11.58;71.70;100537.81;4994510;28;20034;-89
2022/01/03 08:09:31;;;;;;;32.78;22.45;;;;;;;11.66;71.62;100551.44;4977149;28;20022;-88
2022/01/03 08:11:57;;;;;;;31.55;21.60;;;;;;;11.71;70.94;100549.22;4996679;28;20015;-82
2022/01/03 08:14:23;;;;;;;44.58;21.63;;;;;;;11.69;71.67;100551.19;4998457;28;20033;-82
2022/01/03 08:16:48;;;;;;;39.25;21.92;;;;;;;11.71;71.14;100554.63;4999110;28;20027;-84
2022/01/03 08:19:14;;;;;;;36.20;24.88;;;;;;;11.77;71.55;100558.66;4980855;28;20022;-83
2022/01/03 08:21:39;;;;;;;41.45;22.88;;;;;;;11.87;71.43;100573.84;4997561;28;20070;-82
2022/01/03 08:24:05;;;;;;;38.88;21.10;;;;;;;11.96;70.71;100569.50;4997686;28;20030;-82
2022/01/03 08:26:33;;;;;;;39.15;21.95;;;;;;;12.01;69.40;100567.28;4997431;28;20476;-81
2022/01/03 08:28:59;;;;;;;31.00;20.35;;;;;;;12.00;70.13;100563.72;4996954;28;20119;-82
2022/01/03 08:31:25;;;;;;;38.15;20.38;;;;;;;12.08;70.21;100554.09;4996876;28;20058;-81
2022/01/03 08:33:53;;;;;;;36.30;20.77;;;;;;;12.12;69.77;100553.69;4997042;28;20128;-85
2022/01/03 08:36:19;;;;;;;39.72;24.10;;;;;;;11.92;69.44;100551.91;4997283;28;20058;-82
2022/01/03 08:38:44;;;;;;;49.65;29.88;;;;;;;12.11;69.49;100541.19;4979703;28;20047;-84
2022/01/03 08:41:10;;;;;;;46.28;22.88;;;;;;;12.16;69.25;100535.41;4997410;28;20559;-78
2022/01/03 08:43:35;;;;;;;32.95;19.60;;;;;;;12.30;68.36;100545.78;4996613;28;20543;-81
2022/01/03 08:46:01;;;;;;;37.85;20.05;;;;;;;12.25;67.85;100521.09;4996265;28;20024;-81
2022/01/03 08:48:28;;;;;;;42.42;22.58;;;;;;;12.36;67.81;100518.25;4998708;28;20404;-84
2022/01/03 08:50:53;;;;;;;35.83;19.92;;;;;;;12.45;67.63;100507.50;4998550;28;20085;-84
2022/01/03 08:53:25;;;;;;;37.05;19.67;;;;;;;12.62;67.01;100508.66;4979520;28;20046;-80
2022/01/03 08:55:50;;;;;;;30.53;19.07;;;;;;;12.71;66.91;100507.81;4995940;28;20026;-82
2022/01/03 08:58:17;;;;;;;29.67;18.50;;;;;;;12.82;66.58;100512.19;4995821;28;20269;-83
2022/01/03 09:00:43;;;;;;;30.50;19.30;;;;;;;12.76;66.12;100505.53;4985671;28;20030;-82
2022/01/03 09:03:08;;;;;;;35.55;19.80;;;;;;;12.83;66.02;100506.69;4987253;28;20026;-84
2022/01/03 09:05:42;;;;;;;42.85;20.63;;;;;;;12.95;65.96;100499.28;5002218;28;20018;-80
2022/01/03 09:08:09;;;;;;;40.13;20.40;;;;;;;13.09;65.99;100502.44;4978916;28;20037;-81
2022/01/03 09:10:35;;;;;;;40.85;19.63;;;;;;;13.23;65.39;100508.38;4977495;28;20033;-80
2022/01/03 09:13:02;;;;;;;36.35;20.92;;;;;;;13.40;64.86;100508.47;4981401;28;20106;-81
2022/01/03 09:15:28;;;;;;;33.42;19.58;;;;;;;13.46;64.03;100493.53;4977345;28;20027;-84
2022/01/03 09:17:53;;;;;;;35.95;22.02;;;;;;;13.55;63.43;100498.06;4990680;28;20041;-80
2022/01/03 09:20:19;;;;;;;30.73;17.95;;;;;;;13.47;62.68;100485.28;4981092;28;20420;-81
2022/01/03 09:22:48;;;;;;;40.25;17.92;;;;;;;13.53;63.16;100470.34;4998899;28;20026;-83
2022/01/03 09:30:31;;;;;;;38.60;19.08;;;;;;;13.93;62.15;100460.06;5232518;22;20077;-81
2022/01/03 09:32:56;;;;;;;33.88;18.88;;;;;;;14.06;61.65;100460.56;4993709;28;20101;-79
2022/01/03 09:35:22;;;;;;;27.95;18.58;;;;;;;14.23;61.20;100449.91;5013639;28;20034;-79
2022/01/03 09:37:48;;;;;;;33.70;17.02;;;;;;;14.38;60.36;100445.72;5002763;28;20030;-79
2022/01/03 09:40:14;;;;;;;30.95;16.58;;;;;;;14.44;59.77;100432.44;4995649;28;20090;-80
2022/01/03 09:42:43;;;;;;;25.60;16.88;;;;;;;14.42;60.03;100428.19;5009849;28;20022;-79
2022/01/03 09:45:12;;;;;;;38.72;18.20;;;;;;;14.57;59.87;100426.63;4998737;28;20453;-80
2022/01/03 09:47:44;;;;;;;44.08;19.38;;;;;;;14.62;59.88;100425.16;4994127;28;20096;-80
2022/01/03 09:50:12;;;;;;;38.67;21.73;;;;;;;14.80;59.84;100408.88;4993982;28;20429;-79
2022/01/03 09:52:41;;;;;;;49.78;24.15;;;;;;;14.92;59.25;100415.75;4994570;28;20101;-79
2022/01/03 09:55:07;;;;;;;51.85;22.33;;;;;;;14.91;59.24;100408.66;4994523;28;20453;-80
2022/01/03 09:57:33;;;;;;;53.65;25.67;;;;;;;14.99;59.05;100400.56;4994630;28;20038;-79
2022/01/03 10:00:00;;;;;;;45.33;26.88;;;;;;;15.08;59.15;100412.31;4995071;28;20026;-79
2022/01/03 10:02:25;;;;;;;46.45;28.42;;;;;;;15.14;59.12;100404.41;4996152;28;20026;-80
2022/01/03 10:04:51;;;;;;;46.25;25.60;;;;;;;15.22;58.62;100407.19;4995656;28;20436;-79
2022/01/03 10:07:19;;;;;;;36.05;22.02;;;;;;;15.17;58.96;100397.81;4994804;28;20384;-79
2022/01/03 10:09:45;;;;;;;33.17;21.75;;;;;;;15.25;58.48;100406.00;5004484;28;20566;-86
2022/01/03 10:12:13;;;;;;;40.28;24.13;;;;;;;15.31;58.59;100399.09;4999913;28;20056;-90
2022/01/03 10:14:40;;;;;;;43.20;23.60;;;;;;;15.37;58.55;100390.31;4979033;28;20029;-83
2022/01/03 10:17:06;;;;;;;55.75;30.27;;;;;;;15.46;58.46;100383.94;4979632;28;20026;-87
2022/01/03 10:19:49;;;;;;;43.35;27.25;;;;;;;15.53;58.11;100387.72;5000406;28;20061;-89
2022/01/03 10:22:26;;;;;;;42.15;26.73;;;;;;;15.53;58.05;100385.03;4997968;28;20027;-85
2022/01/03 10:24:52;;;;;;;40.22;23.20;;;;;;;15.61;58.08;100396.75;5002634;28;20022;-84
2022/01/03 10:27:18;;;;;;;32.03;20.60;;;;;;;15.65;57.67;100381.00;4996936;28;20030;-83
2022/01/03 10:29:54;;;;;;;43.40;25.27;;;;;;;15.71;57.11;100377.66;5004501;28;20125;-89
2022/01/03 10:32:28;;;;;;;42.30;24.40;;;;;;;15.58;57.20;100364.53;4999211;28;20433;-89
2022/01/03 10:34:56;;;;;;;36.67;22.33;;;;;;;15.57;57.22;100370.09;4997599;28;20054;-89
2022/01/03 10:37:34;;;;;;;71.93;23.02;;;;;;;15.72;56.98;100354.91;4996490;28;20034;-87
2022/01/03 10:40:29;;;;;;;40.45;21.95;;;;;;;15.80;56.71;100346.81;4987748;28;20017;-88
2022/01/03 10:42:57;;;;;;;33.40;20.10;;;;;;;15.83;56.87;100343.78;4986420;28;20041;-90
2022/01/03 10:45:32;;;;;;;39.08;18.77;;;;;;;15.83;56.33;100332.94;4998455;28;20022;-82
2022/01/03 10:47:58;;;;;;;37.70;19.95;;;;;;;15.83;56.19;100318.53;5000050;28;20499;-83
2022/01/03 10:50:24;;;;;;;33.28;17.60;;;;;;;15.83;55.79;100313.94;4994466;28;20511;-82
2022/01/03 10:52:52;;;;;;;31.13;15.32;;;;;;;15.87;55.06;100309.88;4997869;28;20045;-83
2022/01/03 10:55:33;;;;;;;33.63;13.55;;;;;;;15.97;54.87;100313.28;4996322;28;20084;-83
2022/01/03 10:57:59;;;;;;;17.58;10.30;;;;;;;16.00;53.42;100312.97;4994559;28;20032;-81
2022/01/03 11:00:25;;;;;;;26.85;9.05;;;;;;;16.03;52.79;100307.19;4994236;28;20101;-81
2022/01/03 11:03:20;;;;;;;28.58;9.30;;;;;;;15.98;52.27;100298.72;4994060;28;20037;-83
2022/01/03 11:05:52;;;;;;;16.75;9.13;;;;;;;15.93;52.45;100295.66;4992138;28;20027;-86
2022/01/03 11:11:06;;;;;;;11.32;7.50;;;;;;;15.94;51.67;100300.06;4997449;28;20041;-91
2022/01/03 11:13:33;;;;;;;18.45;6.22;;;;;;;15.94;51.22;100299.22;4995841;28;20114;-86
2022/01/03 11:16:00;;;;;;;12.75;5.75;;;;;;;15.82;50.56;100305.97;5004358;28;20042;-87
2022/01/03 11:18:35;;;;;;;13.05;5.97;;;;;;;15.85;50.67;100300.22;4995737;28;20030;-84
2022/01/03 11:21:17;;;;;;;10.68;5.57;;;;;;;15.73;51.23;100302.41;4994549;28;20030;-83
2022/01/03 11:23:48;;;;;;;18.00;7.93;;;;;;;15.79;51.57;100290.88;5005130;28;20025;-86
2022/01/03 11:26:19;;;;;;;16.42;6.47;;;;;;;15.76;51.42;100291.22;4993885;28;20338;-85
2022/01/03 11:28:46;;;;;;;11.93;6.25;;;;;;;15.70;51.51;100276.47;5008261;28;20097;-88